sensor_id;sensor_type;location;lat;lon;timestamp;pressure;altitude;pressure_sealevel;temperature;humidity
76337;BME280;65157;50.082;18.178;2024-01-06T00:02:03;98232.72;;;0.39;87.43
76337;BME280;65157;50.082;18.178;2024-01-06T00:04:29;98238.12;;;0.38;87.54
76337;BME280;65157;50.082;18.178;2024-01-06T00:06:56;98240.55;;;0.37;87.55
76337;BME280;65157;50.082;18.178;2024-01-06T00:09:23;98240.05;;;0.35;87.73
76337;BME280;65157;50.082;18.178;2024-01-06T00:11:50;98236.28;;;0.34;87.84
76337;BME280;65157;50.082;18.178;2024-01-06T00:14:16;98234.38;;;0.35;87.96
76337;BME280;65157;50.082;18.178;2024-01-06T00:16:43;98233.67;;;0.35;87.96
76337;BME280;65157;50.082;18.178;2024-01-06T00:19:09;98232.64;;;0.33;88.16
76337;BME280;65157;50.082;18.178;2024-01-06T00:21:36;98233.88;;;0.32;88.13
76337;BME280;65157;50.082;18.178;2024-01-06T00:24:03;98234.58;;;0.32;88.38
76337;BME280;65157;50.082;18.178;2024-01-06T00:26:29;98237.92;;;0.30;88.53
76337;BME280;65157;50.082;18.178;2024-01-06T00:28:56;98242.15;;;0.26;88.89
76337;BME280;65157;50.082;18.178;2024-01-06T00:31:23;98237.89;;;0.22;89.13
76337;BME280;65157;50.082;18.178;2024-01-06T00:33:51;98239.92;;;0.24;89.17
76337;BME280;65157;50.082;18.178;2024-01-06T00:36:17;98248.24;;;0.25;88.94
76337;BME280;65157;50.082;18.178;2024-01-06T00:38:44;98258.27;;;0.27;89.15
76337;BME280;65157;50.082;18.178;2024-01-06T00:41:11;98265.73;;;0.28;89.03
76337;BME280;65157;50.082;18.178;2024-01-06T00:43:38;98262.73;;;0.29;89.19
76337;BME280;65157;50.082;18.178;2024-01-06T00:46:04;98259.03;;;0.33;89.18
76337;BME280;65157;50.082;18.178;2024-01-06T00:48:31;98262.81;;;0.35;89.12
76337;BME280;65157;50.082;18.178;2024-01-06T00:50:57;98269.59;;;0.35;89.09
76337;BME280;65157;50.082;18.178;2024-01-06T00:53:24;98263.00;;;0.35;89.01
76337;BME280;65157;50.082;18.178;2024-01-06T00:55:51;98266.79;;;0.36;89.11
76337;BME280;65157;50.082;18.178;2024-01-06T00:58:17;98265.59;;;0.36;89.16
76337;BME280;65157;50.082;18.178;2024-01-06T01:00:44;98271.16;;;0.34;89.27
76337;BME280;65157;50.082;18.178;2024-01-06T01:03:10;98265.11;;;0.33;89.34
76337;BME280;65157;50.082;18.178;2024-01-06T01:05:37;98260.59;;;0.34;89.37
76337;BME280;65157;50.082;18.178;2024-01-06T01:08:04;98261.09;;;0.35;89.34
76337;BME280;65157;50.082;18.178;2024-01-06T01:10:31;98258.66;;;0.35;89.36
76337;BME280;65157;50.082;18.178;2024-01-06T01:12:58;98262.45;;;0.37;89.36
76337;BME280;65157;50.082;18.178;2024-01-06T01:15:24;98265.22;;;0.36;89.51
76337;BME280;65157;50.082;18.178;2024-01-06T01:17:51;98270.16;;;0.41;89.56
76337;BME280;65157;50.082;18.178;2024-01-06T01:20:17;98268.55;;;0.45;89.45
76337;BME280;65157;50.082;18.178;2024-01-06T01:22:44;98271.61;;;0.47;89.37
76337;BME280;65157;50.082;18.178;2024-01-06T01:25:11;98268.84;;;0.48;89.43
76337;BME280;65157;50.082;18.178;2024-01-06T01:27:37;98272.94;;;0.51;89.53
76337;BME280;65157;50.082;18.178;2024-01-06T01:30:04;98266.34;;;0.52;89.47
76337;BME280;65157;50.082;18.178;2024-01-06T01:32:31;98268.70;;;0.56;89.46
76337;BME280;65157;50.082;18.178;2024-01-06T01:34:57;98263.84;;;0.56;89.37
76337;BME280;65157;50.082;18.178;2024-01-06T01:37:24;98261.90;;;0.57;89.39
76337;BME280;65157;50.082;18.178;2024-01-06T01:39:51;98250.82;;;0.55;89.40
76337;BME280;65157;50.082;18.178;2024-01-06T01:42:18;98257.00;;;0.60;89.35
76337;BME280;65157;50.082;18.178;2024-01-06T01:44:45;98250.77;;;0.59;89.22
76337;BME280;65157;50.082;18.178;2024-01-06T01:47:11;98249.36;;;0.59;89.44
76337;BME280;65157;50.082;18.178;2024-01-06T01:49:38;98243.35;;;0.56;89.39
76337;BME280;65157;50.082;18.178;2024-01-06T01:52:05;98243.70;;;0.55;89.56
76337;BME280;65157;50.082;18.178;2024-01-06T01:54:32;98245.14;;;0.53;89.55
76337;BME280;65157;50.082;18.178;2024-01-06T01:56:58;98244.79;;;0.52;89.49
76337;BME280;65157;50.082;18.178;2024-01-06T01:59:25;98243.07;;;0.52;89.56
76337;BME280;65157;50.082;18.178;2024-01-06T02:01:52;98236.02;;;0.49;89.72
76337;BME280;65157;50.082;18.178;2024-01-06T02:04:18;98238.25;;;0.50;89.82
76337;BME280;65157;50.082;18.178;2024-01-06T02:06:45;98243.27;;;0.50;89.87
76337;BME280;65157;50.082;18.178;2024-01-06T02:09:12;98248.14;;;0.50;89.95
76337;BME280;65157;50.082;18.178;2024-01-06T02:11:38;98245.38;;;0.49;89.87
76337;BME280;65157;50.082;18.178;2024-01-06T02:14:05;98242.25;;;0.49;89.99
76337;BME280;65157;50.082;18.178;2024-01-06T02:16:32;98242.42;;;0.49;90.04
76337;BME280;65157;50.082;18.178;2024-01-06T02:18:58;98244.52;;;0.49;90.09
76337;BME280;65157;50.082;18.178;2024-01-06T02:21:27;98244.52;;;0.49;90.09
76337;BME280;65157;50.082;18.178;2024-01-06T02:23:54;98246.27;;;0.48;90.20
76337;BME280;65157;50.082;18.178;2024-01-06T02:26:20;98250.10;;;0.48;90.25
76337;BME280;65157;50.082;18.178;2024-01-06T02:28:47;98244.37;;;0.47;90.11
76337;BME280;65157;50.082;18.178;2024-01-06T02:31:15;98246.65;;;0.47;90.07
76337;BME280;65157;50.082;18.178;2024-01-06T02:33:41;98243.66;;;0.48;90.18
76337;BME280;65157;50.082;18.178;2024-01-06T02:36:08;98247.66;;;0.48;90.35
76337;BME280;65157;50.082;18.178;2024-01-06T02:38:34;98237.21;;;0.49;90.47
76337;BME280;65157;50.082;18.178;2024-01-06T02:41:01;98232.67;;;0.50;90.30
76337;BME280;65157;50.082;18.178;2024-01-06T02:43:28;98234.77;;;0.50;90.60
76337;BME280;65157;50.082;18.178;2024-01-06T02:45:54;98243.41;;;0.53;90.40
76337;BME280;65157;50.082;18.178;2024-01-06T02:48:21;98233.02;;;0.51;90.48
76337;BME280;65157;50.082;18.178;2024-01-06T02:50:48;98236.09;;;0.54;90.43
76337;BME280;65157;50.082;18.178;2024-01-06T02:53:14;98233.13;;;0.54;90.55
76337;BME280;65157;50.082;18.178;2024-01-06T02:55:41;98233.63;;;0.56;90.69
76337;BME280;65157;50.082;18.178;2024-01-06T02:58:07;98235.86;;;0.58;90.73
76337;BME280;65157;50.082;18.178;2024-01-06T03:00:34;98233.57;;;0.59;90.62
76337;BME280;65157;50.082;18.178;2024-01-06T03:03:01;98230.95;;;0.60;90.69
76337;BME280;65157;50.082;18.178;2024-01-06T03:05:27;98231.28;;;0.60;90.57
76337;BME280;65157;50.082;18.178;2024-01-06T03:07:54;98228.69;;;0.60;90.57
76337;BME280;65157;50.082;18.178;2024-01-06T03:10:21;98225.40;;;0.60;90.72
76337;BME280;65157;50.082;18.178;2024-01-06T03:12:48;98220.86;;;0.61;90.61
76337;BME280;65157;50.082;18.178;2024-01-06T03:15:14;98218.95;;;0.61;90.47
76337;BME280;65157;50.082;18.178;2024-01-06T03:17:41;98218.10;;;0.60;90.50
76337;BME280;65157;50.082;18.178;2024-01-06T03:20:08;98219.62;;;0.61;90.58
76337;BME280;65157;50.082;18.178;2024-01-06T03:22:36;98220.84;;;0.61;90.79
76337;BME280;65157;50.082;18.178;2024-01-06T03:25:03;98222.90;;;0.63;90.75
76337;BME280;65157;50.082;18.178;2024-01-06T03:27:31;98222.02;;;0.64;90.79
76337;BME280;65157;50.082;18.178;2024-01-06T03:29:58;98224.61;;;0.64;90.73
76337;BME280;65157;50.082;18.178;2024-01-06T03:32:24;98226.67;;;0.65;90.81
76337;BME280;65157;50.082;18.178;2024-01-06T03:34:51;98225.62;;;0.67;91.00
76337;BME280;65157;50.082;18.178;2024-01-06T03:37:17;98225.76;;;0.67;91.15
76337;BME280;65157;50.082;18.178;2024-01-06T03:39:44;98225.94;;;0.67;91.07
76337;BME280;65157;50.082;18.178;2024-01-06T03:42:11;98224.34;;;0.70;91.06
76337;BME280;65157;50.082;18.178;2024-01-06T03:44:37;98222.91;;;0.72;91.18
76337;BME280;65157;50.082;18.178;2024-01-06T03:47:04;98225.81;;;0.73;91.10
76337;BME280;65157;50.082;18.178;2024-01-06T03:49:30;98228.76;;;0.75;91.13
76337;BME280;65157;50.082;18.178;2024-01-06T03:51:57;98228.02;;;0.76;91.19
76337;BME280;65157;50.082;18.178;2024-01-06T03:54:23;98229.05;;;0.78;91.24
76337;BME280;65157;50.082;18.178;2024-01-06T03:56:50;98230.41;;;0.79;91.22
76337;BME280;65157;50.082;18.178;2024-01-06T03:59:17;98232.08;;;0.82;91.07
76337;BME280;65157;50.082;18.178;2024-01-06T04:01:43;98234.98;;;0.84;91.23
76337;BME280;65157;50.082;18.178;2024-01-06T04:04:10;98232.02;;;0.85;91.07
76337;BME280;65157;50.082;18.178;2024-01-06T04:06:37;98234.09;;;0.86;91.26
76337;BME280;65157;50.082;18.178;2024-01-06T04:09:04;98228.21;;;0.85;91.13
76337;BME280;65157;50.082;18.178;2024-01-06T04:11:30;98229.69;;;0.88;91.32
76337;BME280;65157;50.082;18.178;2024-01-06T04:13:57;98230.20;;;0.89;91.35
76337;BME280;65157;50.082;18.178;2024-01-06T04:16:26;98229.31;;;0.90;91.25
76337;BME280;65157;50.082;18.178;2024-01-06T04:18:52;98235.53;;;0.92;91.40
76337;BME280;65157;50.082;18.178;2024-01-06T04:21:19;98228.57;;;0.93;91.37
76337;BME280;65157;50.082;18.178;2024-01-06T04:23:46;98225.05;;;0.94;91.18
76337;BME280;65157;50.082;18.178;2024-01-06T04:26:12;98227.08;;;0.97;91.37
76337;BME280;65157;50.082;18.178;2024-01-06T04:28:41;98228.77;;;0.99;91.21
76337;BME280;65157;50.082;18.178;2024-01-06T04:31:08;98228.06;;;1.00;91.19
76337;BME280;65157;50.082;18.178;2024-01-06T04:33:34;98231.70;;;1.00;91.30
76337;BME280;65157;50.082;18.178;2024-01-06T04:36:01;98234.42;;;1.03;91.26
76337;BME280;65157;50.082;18.178;2024-01-06T04:38:28;98236.30;;;1.05;91.10
76337;BME280;65157;50.082;18.178;2024-01-06T04:40:54;98236.48;;;1.04;91.18
76337;BME280;65157;50.082;18.178;2024-01-06T04:43:21;98238.69;;;1.07;91.25
76337;BME280;65157;50.082;18.178;2024-01-06T04:45:47;98240.88;;;1.10;91.29
76337;BME280;65157;50.082;18.178;2024-01-06T04:48:14;98246.40;;;1.12;91.17
76337;BME280;65157;50.082;18.178;2024-01-06T04:50:41;98246.73;;;1.13;91.15
76337;BME280;65157;50.082;18.178;2024-01-06T04:53:08;98242.67;;;1.17;91.13
76337;BME280;65157;50.082;18.178;2024-01-06T04:55:35;98251.98;;;1.19;91.14
76337;BME280;65157;50.082;18.178;2024-01-06T04:58:02;98253.36;;;1.20;90.92
76337;BME280;65157;50.082;18.178;2024-01-06T05:00:28;98254.20;;;1.22;90.88
76337;BME280;65157;50.082;18.178;2024-01-06T05:02:55;98250.86;;;1.23;90.84
76337;BME280;65157;50.082;18.178;2024-01-06T05:05:22;98248.77;;;1.24;90.94
76337;BME280;65157;50.082;18.178;2024-01-06T05:07:48;98247.53;;;1.25;91.03
76337;BME280;65157;50.082;18.178;2024-01-06T05:10:16;98243.34;;;1.26;91.01
76337;BME280;65157;50.082;18.178;2024-01-06T05:12:43;98241.58;;;1.27;90.99
76337;BME280;65157;50.082;18.178;2024-01-06T05:15:09;98236.84;;;1.29;90.93
76337;BME280;65157;50.082;18.178;2024-01-06T05:17:36;98240.28;;;1.30;91.02
76337;BME280;65157;50.082;18.178;2024-01-06T05:20:03;98243.95;;;1.30;90.88
76337;BME280;65157;50.082;18.178;2024-01-06T05:22:30;98247.50;;;1.34;90.95
76337;BME280;65157;50.082;18.178;2024-01-06T05:24:56;98247.83;;;1.35;90.88
76337;BME280;65157;50.082;18.178;2024-01-06T05:27:23;98248.35;;;1.36;90.77
76337;BME280;65157;50.082;18.178;2024-01-06T05:29:49;98249.36;;;1.37;91.00
76337;BME280;65157;50.082;18.178;2024-01-06T05:32:16;98247.77;;;1.38;90.87
76337;BME280;65157;50.082;18.178;2024-01-06T05:34:43;98249.63;;;1.40;90.94
76337;BME280;65157;50.082;18.178;2024-01-06T05:37:09;98252.18;;;1.43;90.83
76337;BME280;65157;50.082;18.178;2024-01-06T05:39:38;98254.94;;;1.44;90.87
76337;BME280;65157;50.082;18.178;2024-01-06T05:42:04;98250.89;;;1.46;90.77
76337;BME280;65157;50.082;18.178;2024-01-06T05:44:31;98247.90;;;1.47;90.90
76337;BME280;65157;50.082;18.178;2024-01-06T05:47:04;98257.23;;;1.50;90.84
76337;BME280;65157;50.082;18.178;2024-01-06T05:49:30;98266.95;;;1.51;90.88
76337;BME280;65157;50.082;18.178;2024-01-06T05:51:57;98265.52;;;1.53;90.77
76337;BME280;65157;50.082;18.178;2024-01-06T05:54:23;98265.14;;;1.54;90.73
76337;BME280;65157;50.082;18.178;2024-01-06T05:56:50;98262.70;;;1.55;90.73
76337;BME280;65157;50.082;18.178;2024-01-06T05:59:17;98267.16;;;1.57;90.76
76337;BME280;65157;50.082;18.178;2024-01-06T06:01:44;98262.50;;;1.55;90.58
76337;BME280;65157;50.082;18.178;2024-01-06T06:04:11;98263.30;;;1.58;90.62
76337;BME280;65157;50.082;18.178;2024-01-06T06:06:37;98262.65;;;1.57;90.56
76337;BME280;65157;50.082;18.178;2024-01-06T06:09:04;98266.41;;;1.59;90.70
76337;BME280;65157;50.082;18.178;2024-01-06T06:11:31;98262.23;;;1.59;90.65
76337;BME280;65157;50.082;18.178;2024-01-06T06:13:57;98264.01;;;1.59;90.70
76337;BME280;65157;50.082;18.178;2024-01-06T06:16:24;98265.91;;;1.59;90.69
76337;BME280;65157;50.082;18.178;2024-01-06T06:18:51;98269.86;;;1.60;90.74
76337;BME280;65157;50.082;18.178;2024-01-06T06:21:17;98276.27;;;1.62;90.73
76337;BME280;65157;50.082;18.178;2024-01-06T06:23:44;98281.46;;;1.63;90.61
76337;BME280;65157;50.082;18.178;2024-01-06T06:26:10;98285.11;;;1.63;90.62
76337;BME280;65157;50.082;18.178;2024-01-06T06:28:37;98289.94;;;1.65;90.64
76337;BME280;65157;50.082;18.178;2024-01-06T06:31:04;98293.02;;;1.67;90.58
76337;BME280;65157;50.082;18.178;2024-01-06T06:33:30;98293.89;;;1.67;90.56
76337;BME280;65157;50.082;18.178;2024-01-06T06:36:07;98289.67;;;1.69;90.54
76337;BME280;65157;50.082;18.178;2024-01-06T06:38:34;98288.81;;;1.69;90.49
76337;BME280;65157;50.082;18.178;2024-01-06T06:41:00;98292.76;;;1.71;90.52
76337;BME280;65157;50.082;18.178;2024-01-06T06:43:27;98293.44;;;1.72;90.40
76337;BME280;65157;50.082;18.178;2024-01-06T06:45:54;98297.63;;;1.71;90.64
76337;BME280;65157;50.082;18.178;2024-01-06T06:48:21;98301.10;;;1.72;90.55
76337;BME280;65157;50.082;18.178;2024-01-06T06:50:47;98304.06;;;1.71;90.49
76337;BME280;65157;50.082;18.178;2024-01-06T06:53:14;98309.65;;;1.71;90.66
76337;BME280;65157;50.082;18.178;2024-01-06T06:55:41;98312.09;;;1.70;90.71
76337;BME280;65157;50.082;18.178;2024-01-06T06:58:09;98311.75;;;1.70;90.60
76337;BME280;65157;50.082;18.178;2024-01-06T07:00:36;98314.02;;;1.70;90.74
76337;BME280;65157;50.082;18.178;2024-01-06T07:03:03;98317.65;;;1.70;90.75
76337;BME280;65157;50.082;18.178;2024-01-06T07:05:29;98315.02;;;1.71;90.81
76337;BME280;65157;50.082;18.178;2024-01-06T07:07:56;98313.97;;;1.72;90.73
76337;BME280;65157;50.082;18.178;2024-01-06T07:10:23;98314.83;;;1.72;90.88
76337;BME280;65157;50.082;18.178;2024-01-06T07:12:49;98315.16;;;1.73;90.81
76337;BME280;65157;50.082;18.178;2024-01-06T07:15:16;98317.06;;;1.74;90.86
76337;BME280;65157;50.082;18.178;2024-01-06T07:17:42;98321.27;;;1.72;90.88
76337;BME280;65157;50.082;18.178;2024-01-06T07:20:09;98317.30;;;1.71;91.13
76337;BME280;65157;50.082;18.178;2024-01-06T07:22:36;98319.02;;;1.71;91.14
76337;BME280;65157;50.082;18.178;2024-01-06T07:25:03;98317.09;;;1.71;91.21
76337;BME280;65157;50.082;18.178;2024-01-06T07:27:30;98321.56;;;1.74;91.04
76337;BME280;65157;50.082;18.178;2024-01-06T07:29:57;98322.23;;;1.76;91.06
76337;BME280;65157;50.082;18.178;2024-01-06T07:32:23;98325.66;;;1.78;90.98
76337;BME280;65157;50.082;18.178;2024-01-06T07:34:50;98325.58;;;1.82;90.83
76337;BME280;65157;50.082;18.178;2024-01-06T07:37:18;98329.72;;;1.83;90.82
76337;BME280;65157;50.082;18.178;2024-01-06T07:39:44;98333.84;;;1.86;90.87
76337;BME280;65157;50.082;18.178;2024-01-06T07:42:11;98331.36;;;1.88;90.89
76337;BME280;65157;50.082;18.178;2024-01-06T07:44:38;98336.67;;;1.91;90.68
76337;BME280;65157;50.082;18.178;2024-01-06T07:47:04;98338.52;;;1.94;90.63
76337;BME280;65157;50.082;18.178;2024-01-06T07:49:31;98334.64;;;1.97;90.71
76337;BME280;65157;50.082;18.178;2024-01-06T07:52:00;98338.56;;;2.00;90.68
76337;BME280;65157;50.082;18.178;2024-01-06T07:54:27;98338.13;;;2.04;90.78
76337;BME280;65157;50.082;18.178;2024-01-06T07:56:53;98336.86;;;2.05;90.53
76337;BME280;65157;50.082;18.178;2024-01-06T07:59:20;98337.52;;;2.07;90.70
76337;BME280;65157;50.082;18.178;2024-01-06T08:01:47;98343.61;;;2.08;90.69
76337;BME280;65157;50.082;18.178;2024-01-06T08:04:13;98344.92;;;2.11;90.66
76337;BME280;65157;50.082;18.178;2024-01-06T08:06:40;98339.99;;;2.13;90.77
76337;BME280;65157;50.082;18.178;2024-01-06T08:09:06;98334.74;;;2.14;90.84
76337;BME280;65157;50.082;18.178;2024-01-06T08:11:33;98344.08;;;2.17;90.83
76337;BME280;65157;50.082;18.178;2024-01-06T08:14:00;98349.10;;;2.18;90.76
76337;BME280;65157;50.082;18.178;2024-01-06T08:16:26;98348.02;;;2.20;90.84
76337;BME280;65157;50.082;18.178;2024-01-06T08:18:53;98346.90;;;2.23;90.95
76337;BME280;65157;50.082;18.178;2024-01-06T08:21:20;98349.60;;;2.27;90.96
76337;BME280;65157;50.082;18.178;2024-01-06T08:23:46;98351.09;;;2.30;90.96
76337;BME280;65157;50.082;18.178;2024-01-06T08:26:14;98352.59;;;2.33;91.21
76337;BME280;65157;50.082;18.178;2024-01-06T08:28:41;98358.41;;;2.37;91.25
76337;BME280;65157;50.082;18.178;2024-01-06T08:31:07;98358.14;;;2.41;91.15
76337;BME280;65157;50.082;18.178;2024-01-06T08:33:34;98357.01;;;2.45;91.08
76337;BME280;65157;50.082;18.178;2024-01-06T08:36:01;98364.06;;;2.48;90.90
76337;BME280;65157;50.082;18.178;2024-01-06T08:38:27;98367.27;;;2.53;90.99
76337;BME280;65157;50.082;18.178;2024-01-06T08:40:54;98367.70;;;2.56;90.93
76337;BME280;65157;50.082;18.178;2024-01-06T08:43:20;98362.94;;;2.59;91.01
76337;BME280;65157;50.082;18.178;2024-01-06T08:45:48;98365.81;;;2.62;90.84
76337;BME280;65157;50.082;18.178;2024-01-06T08:48:15;98368.67;;;2.66;90.86
76337;BME280;65157;50.082;18.178;2024-01-06T08:50:41;98372.62;;;2.69;90.89
76337;BME280;65157;50.082;18.178;2024-01-06T08:53:08;98375.88;;;2.70;91.01
76337;BME280;65157;50.082;18.178;2024-01-06T08:55:35;98384.48;;;2.75;90.89
76337;BME280;65157;50.082;18.178;2024-01-06T08:58:02;98385.96;;;2.78;90.79
76337;BME280;65157;50.082;18.178;2024-01-06T09:00:29;98389.03;;;2.81;90.83
76337;BME280;65157;50.082;18.178;2024-01-06T09:02:55;98394.02;;;2.83;90.91
76337;BME280;65157;50.082;18.178;2024-01-06T09:05:22;98394.84;;;2.86;90.87
76337;BME280;65157;50.082;18.178;2024-01-06T09:07:49;98400.70;;;2.89;90.81
76337;BME280;65157;50.082;18.178;2024-01-06T09:10:19;98400.35;;;2.89;90.84
76337;BME280;65157;50.082;18.178;2024-01-06T09:12:46;98398.42;;;2.89;90.90
76337;BME280;65157;50.082;18.178;2024-01-06T09:15:12;98405.69;;;2.91;90.85
76337;BME280;65157;50.082;18.178;2024-01-06T09:17:40;98405.14;;;2.92;90.89
76337;BME280;65157;50.082;18.178;2024-01-06T09:20:07;98405.48;;;2.93;90.82
76337;BME280;65157;50.082;18.178;2024-01-06T09:22:34;98404.61;;;2.93;90.90
76337;BME280;65157;50.082;18.178;2024-01-06T09:25:01;98409.78;;;2.94;90.82
76337;BME280;65157;50.082;18.178;2024-01-06T09:27:28;98409.27;;;2.95;90.89
76337;BME280;65157;50.082;18.178;2024-01-06T09:29:54;98412.02;;;2.96;90.98
76337;BME280;65157;50.082;18.178;2024-01-06T09:32:21;98410.75;;;2.98;90.97
76337;BME280;65157;50.082;18.178;2024-01-06T09:34:47;98411.39;;;3.00;91.03
76337;BME280;65157;50.082;18.178;2024-01-06T09:37:14;98412.77;;;3.01;90.98
76337;BME280;65157;50.082;18.178;2024-01-06T09:39:40;98411.48;;;3.03;91.06
76337;BME280;65157;50.082;18.178;2024-01-06T09:42:07;98411.91;;;3.07;91.20
76337;BME280;65157;50.082;18.178;2024-01-06T09:44:34;98414.45;;;3.09;91.17
76337;BME280;65157;50.082;18.178;2024-01-06T09:47:01;98409.52;;;3.12;91.30
76337;BME280;65157;50.082;18.178;2024-01-06T09:49:28;98407.52;;;3.15;91.26
76337;BME280;65157;50.082;18.178;2024-01-06T09:51:59;98406.92;;;3.17;91.28
76337;BME280;65157;50.082;18.178;2024-01-06T09:54:30;98405.95;;;3.21;91.30
76337;BME280;65157;50.082;18.178;2024-01-06T09:56:57;98404.98;;;3.25;91.57
76337;BME280;65157;50.082;18.178;2024-01-06T09:59:23;98407.09;;;3.30;91.45
76337;BME280;65157;50.082;18.178;2024-01-06T10:01:50;98406.98;;;3.35;91.44
76337;BME280;65157;50.082;18.178;2024-01-06T10:04:17;98407.70;;;3.41;91.56
76337;BME280;65157;50.082;18.178;2024-01-06T10:06:44;98405.95;;;3.47;91.47
76337;BME280;65157;50.082;18.178;2024-01-06T10:09:12;98403.04;;;3.52;91.46
76337;BME280;65157;50.082;18.178;2024-01-06T10:11:39;98406.76;;;3.56;91.64
76337;BME280;65157;50.082;18.178;2024-01-06T10:14:06;98405.31;;;3.58;91.61
76337;BME280;65157;50.082;18.178;2024-01-06T10:16:34;98406.77;;;3.61;91.63
76337;BME280;65157;50.082;18.178;2024-01-06T10:19:01;98407.94;;;3.63;91.63
76337;BME280;65157;50.082;18.178;2024-01-06T10:21:27;98408.31;;;3.62;91.34
76337;BME280;65157;50.082;18.178;2024-01-06T10:23:54;98411.30;;;3.62;91.13
76337;BME280;65157;50.082;18.178;2024-01-06T10:26:21;98411.08;;;3.63;91.00
76337;BME280;65157;50.082;18.178;2024-01-06T10:28:48;98410.20;;;3.64;90.77
76337;BME280;65157;50.082;18.178;2024-01-06T10:31:15;98407.91;;;3.65;90.60
76337;BME280;65157;50.082;18.178;2024-01-06T10:33:41;98404.70;;;3.67;90.55
76337;BME280;65157;50.082;18.178;2024-01-06T10:36:09;98400.46;;;3.68;90.44
76337;BME280;65157;50.082;18.178;2024-01-06T10:38:37;98401.75;;;3.72;90.40
76337;BME280;65157;50.082;18.178;2024-01-06T10:41:04;98401.34;;;3.74;90.22
76337;BME280;65157;50.082;18.178;2024-01-06T10:43:32;98400.20;;;3.77;90.22
76337;BME280;65157;50.082;18.178;2024-01-06T10:45:59;98400.80;;;3.81;90.05
76337;BME280;65157;50.082;18.178;2024-01-06T10:48:30;98399.87;;;3.83;90.12
76337;BME280;65157;50.082;18.178;2024-01-06T10:50:58;98399.98;;;3.85;90.10
76337;BME280;65157;50.082;18.178;2024-01-06T10:53:26;98400.29;;;3.86;89.90
76337;BME280;65157;50.082;18.178;2024-01-06T10:55:53;98400.39;;;3.89;89.98
76337;BME280;65157;50.082;18.178;2024-01-06T10:58:21;98401.70;;;3.92;89.96
76337;BME280;65157;50.082;18.178;2024-01-06T11:00:48;98403.39;;;3.94;89.86
76337;BME280;65157;50.082;18.178;2024-01-06T11:03:17;98401.16;;;3.92;89.70
76337;BME280;65157;50.082;18.178;2024-01-06T11:05:44;98398.15;;;3.94;89.68
76337;BME280;65157;50.082;18.178;2024-01-06T11:08:12;98397.55;;;3.96;89.72
76337;BME280;65157;50.082;18.178;2024-01-06T11:10:39;98393.86;;;3.97;89.60
76337;BME280;65157;50.082;18.178;2024-01-06T11:13:32;98391.17;;;4.00;89.70
76337;BME280;65157;50.082;18.178;2024-01-06T11:15:57;98393.83;;;3.98;89.58
76337;BME280;65157;50.082;18.178;2024-01-06T11:18:37;98392.43;;;3.98;89.37
76337;BME280;65157;50.082;18.178;2024-01-06T11:23:38;98386.03;;;3.96;89.18
76337;BME280;65157;50.082;18.178;2024-01-06T11:26:06;98386.06;;;3.95;89.05
76337;BME280;65157;50.082;18.178;2024-01-06T11:28:46;98384.88;;;3.94;89.12
76337;BME280;65157;50.082;18.178;2024-01-06T11:31:13;98382.59;;;3.94;89.13
76337;BME280;65157;50.082;18.178;2024-01-06T11:33:44;98378.73;;;3.95;89.01
76337;BME280;65157;50.082;18.178;2024-01-06T11:36:11;98378.77;;;3.94;89.13
76337;BME280;65157;50.082;18.178;2024-01-06T11:38:38;98379.64;;;3.94;88.91
76337;BME280;65157;50.082;18.178;2024-01-06T11:41:08;98381.78;;;3.92;88.81
76337;BME280;65157;50.082;18.178;2024-01-06T11:43:37;98380.41;;;3.92;88.89
76337;BME280;65157;50.082;18.178;2024-01-06T11:46:06;98376.60;;;3.91;88.96
76337;BME280;65157;50.082;18.178;2024-01-06T11:48:33;98383.32;;;3.94;89.01
76337;BME280;65157;50.082;18.178;2024-01-06T11:50:59;98379.42;;;3.95;89.00
76337;BME280;65157;50.082;18.178;2024-01-06T11:53:26;98380.84;;;3.94;88.83
76337;BME280;65157;50.082;18.178;2024-01-06T11:55:53;98380.98;;;3.97;88.97
76337;BME280;65157;50.082;18.178;2024-01-06T11:58:20;98381.15;;;3.96;88.89
76337;BME280;65157;50.082;18.178;2024-01-06T12:00:55;98376.95;;;3.96;88.99
76337;BME280;65157;50.082;18.178;2024-01-06T12:03:22;98377.46;;;3.97;88.95
76337;BME280;65157;50.082;18.178;2024-01-06T12:05:59;98383.24;;;3.96;88.80
76337;BME280;65157;50.082;18.178;2024-01-06T12:08:26;98382.40;;;3.95;88.81
76337;BME280;65157;50.082;18.178;2024-01-06T12:11:02;98383.18;;;3.92;88.72
76337;BME280;65157;50.082;18.178;2024-01-06T12:13:29;98385.87;;;3.90;88.82
76337;BME280;65157;50.082;18.178;2024-01-06T12:15:55;98388.54;;;3.88;88.61
76337;BME280;65157;50.082;18.178;2024-01-06T12:18:22;98391.75;;;3.86;88.67
76337;BME280;65157;50.082;18.178;2024-01-06T12:20:49;98388.61;;;3.86;88.93
76337;BME280;65157;50.082;18.178;2024-01-06T12:23:29;98391.05;;;3.86;88.93
76337;BME280;65157;50.082;18.178;2024-01-06T12:25:55;98388.28;;;3.85;88.68
76337;BME280;65157;50.082;18.178;2024-01-06T12:28:22;98387.12;;;3.83;88.49
76337;BME280;65157;50.082;18.178;2024-01-06T12:30:49;98389.13;;;3.80;88.66
76337;BME280;65157;50.082;18.178;2024-01-06T12:33:16;98385.77;;;3.76;88.47
76337;BME280;65157;50.082;18.178;2024-01-06T12:35:43;98383.98;;;3.71;88.59
76337;BME280;65157;50.082;18.178;2024-01-06T12:38:10;98388.01;;;3.71;88.50
76337;BME280;65157;50.082;18.178;2024-01-06T12:40:37;98386.52;;;3.68;88.43
76337;BME280;65157;50.082;18.178;2024-01-06T12:43:04;98385.61;;;3.63;88.11
76337;BME280;65157;50.082;18.178;2024-01-06T12:45:31;98390.17;;;3.56;88.14
76337;BME280;65157;50.082;18.178;2024-01-06T12:47:58;98385.20;;;3.47;88.48
76337;BME280;65157;50.082;18.178;2024-01-06T12:50:25;98392.27;;;3.50;88.62
76337;BME280;65157;50.082;18.178;2024-01-06T12:52:51;98392.33;;;3.48;88.63
76337;BME280;65157;50.082;18.178;2024-01-06T12:55:18;98397.78;;;3.46;88.63
76337;BME280;65157;50.082;18.178;2024-01-06T12:57:44;98395.05;;;3.44;88.87
76337;BME280;65157;50.082;18.178;2024-01-06T13:00:12;98399.27;;;3.43;88.79
76337;BME280;65157;50.082;18.178;2024-01-06T13:02:39;98406.34;;;3.39;88.77